YGIS weather

Gisborne Helipad
Gisborne, Victoria, Australia

Public forecast

Using degrees Celsius for public forecast. Weather courtesy of forecast.io.

METAR (pilot weather report)

Closest report is Melbourne International Airport, 16.7 nm (30.9 km) SE. Retrieved 2018/08/16 12:30 UTC (14 minutes ago):

YMML 161230Z 36010KT CAVOK 07/01 Q1014 NOSIG

TAF (pilot weather forecast)

Closest forecast is Melbourne International Airport, 16.7 nm (30.9 km) SE. Retrieved 2018/08/16 12:34 UTC (10 minutes ago):

TAF YMML 161130Z 1612/1718 35009KT CAVOK FM170000 33015G25KT CAVOK FM170700 35013KT CAVOK FM171000 36017G29KT 9999 FEW040 FM171600 30012KT 9999 -SHRA FEW025 BKN035 INTER 1717/1718 5000 SHRA FEW020 BKN025